Latest Weather Observations for Lucas Heights (ANSTO)

IDN60901

Issued at 9:21 am EST Wednesday 18 September 2019 (issued every 10 minutes, with the page automatically refreshed every 10 minutes)

About weather observations | Map of Sydney area stations | Latest observations for Sydney area | Other Formats
Station Details ID: 066023 Name: LUCAS HEIGHTS (ANSTO) Lat: -34.05 Lon: 150.98 Height: 140.0 m
Data from the previous 72 hours. | See also: Recent months for locations in New South Wales
Date/Time
EST
Temp
°C
App
Temp
°C
Dew
Point
°C
Rel
Hum
%
Delta-T
°C
Wind Press
QNH
hPa
Press
MSL
hPa
Rain since
9am
mm
Dir  Spd
km/h
Gust
km/h
Spd
kts
Gust
kts
17/08:30am 8.6 4.3 7.2 91 0.7 S 19 32 10 17 1022.4 - 11.2
17/08:15am 8.4 4.9 7.1 91 0.6 S 15 28 8 15 1022.6 - 11.0
17/08:00am 8.3 4.4 6.9 91 0.7 S 17 28 9 15 1022.6 - 10.5
17/07:45am 8.2 3.9 6.8 91 0.7 S 19 28 10 15 1022.4 - 9.9
17/07:30am 8.1 3.8 6.8 91 0.6 S 19 28 10 15 1022.4 - 8.7
17/07:15am 8.1 4.5 6.7 91 0.7 S 15 24 8 13 1022.5 - 7.8
17/07:00am 8.1 4.5 6.6 90 0.7 S 15 20 8 11 1022.2 - 7.2
17/06:45am 7.9 4.6 6.5 91 0.6 S 13 22 7 12 1021.9 - 6.5
17/06:30am 7.9 4.6 6.4 90 0.7 S 13 24 7 13 1021.7 - 5.9
17/06:15am 7.9 4.6 6.4 90 0.7 S 13 22 7 12 1021.4 - 5.1
17/06:00am 7.9 4.2 6.3 90 0.7 S 15 24 8 13 1021.3 - 4.8
17/05:45am 7.9 3.8 6.3 90 0.7 S 17 26 9 14 1021.1 - 4.4
17/05:30am 7.9 4.2 6.3 90 0.7 S 15 28 8 15 1021.1 - 4.0
17/05:15am 7.9 4.2 6.2 89 0.8 S 15 28 8 15 1021.0 - 3.4
17/05:00am 7.8 4.8 6.1 89 0.8 S 11 24 6 13 1020.9 - 3.2
17/04:45am 7.8 4.8 6.1 89 0.8 S 11 20 6 11 1021.0 - 3.2
17/04:30am 7.9 4.2 6.1 88 0.8 S 15 28 8 15 1021.1 - 2.9
17/04:15am 7.9 3.4 6.2 89 0.8 S 19 30 10 16 1021.1 - 2.7
17/04:00am 8.0 3.5 6.2 88 0.8 S 19 28 10 15 1021.1 - 2.7
17/03:45am 8.0 4.3 6.3 89 0.8 SSW 15 26 8 14 1021.2 - 2.7
17/03:30am 8.0 3.6 6.4 90 0.7 S 19 32 10 17 1021.1 - 2.7
17/03:15am 7.9 3.8 6.3 90 0.7 S 17 26 9 14 1021.1 - 2.7
17/03:00am 7.8 4.1 6.3 90 0.7 S 15 28 8 15 1021.1 - 2.7
17/02:45am 7.8 3.7 6.3 90 0.7 SSE 17 26 9 14 1021.1 - 2.5
17/02:30am 8.0 3.4 6.5 90 0.7 S 20 39 11 21 1020.8 - 2.5
17/02:15am 8.1 3.5 6.6 90 0.7 S 20 35 11 19 1020.7 - 2.5
17/02:00am 8.3 5.1 6.8 90 0.7 S 13 33 7 18 1021.0 - 2.3
17/01:45am 8.4 4.5 6.9 90 0.7 SSW 17 33 9 18 1021.3 - 2.1
17/01:30am 8.6 4.1 7.1 90 0.7 S 20 37 11 20 1021.3 - 2.1
17/01:15am 9.0 3.9 7.5 90 0.7 S 24 37 13 20 1021.5 - 1.9
17/01:00am 9.3 4.6 7.8 90 0.7 SSE 22 33 12 18 1021.8 - 1.7
17/12:45am 9.5 5.4 8.0 90 0.7 SSE 19 33 10 18 1021.9 - 1.5
17/12:30am 9.6 5.4 8.2 91 0.7 SSE 20 39 11 21 1022.0 - 0.9
17/12:15am 9.6 3.8 8.0 90 0.8 SSE 28 39 15 21 1021.5 - 0.9
17/12:00am 9.8 4.9 8.3 90 0.7 SSE 24 41 13 22 1021.6 - 0.8
 
Date/Time
EST
Temp
°C
App
Temp
°C
Dew
Point
°C
Rel
Hum
%
Delta-T
°C
Wind Press
QNH
hPa
Press
MSL
hPa
Rain since
9am
mm
Dir  Spd
km/h
Gust
km/h
Spd
kts
Gust
kts
16/11:45pm 10.0 5.1 8.6 91 0.7 SSE 24 41 13 22 1021.7 - 0.8
16/11:30pm 10.1 5.6 8.7 91 0.7 SSE 22 37 12 20 1021.6 - 0.6
16/11:15pm 10.3 5.1 8.8 90 0.7 SSE 26 39 14 21 1021.6 - 0.6
16/11:00pm 10.4 6.0 8.9 90 0.7 SSE 22 37 12 20 1021.6 - 0.6
16/10:45pm 10.6 5.9 9.1 90 0.8 SSE 24 37 13 20 1021.5 - 0.6
16/10:30pm 10.7 5.6 9.2 90 0.8 SSE 26 39 14 21 1021.4 - 0.4
16/10:15pm 10.9 5.4 9.3 90 0.8 SSE 28 44 15 24 1021.1 - 0.4
16/10:00pm 11.2 5.4 9.5 89 0.9 SSE 30 43 16 23 1020.7 - 0.2
16/09:45pm 11.7 7.2 9.9 89 0.9 SSE 24 39 13 21 1021.4 - 0.2
16/09:30pm 12.0 8.3 10.0 87 1.0 SSE 20 33 11 18 1021.1 - 0.0
16/09:15pm 12.2 8.7 10.1 87 1.1 SSE 19 33 10 18 1020.4 - 0.0
16/09:00pm 12.5 9.0 10.3 86 1.1 SSE 19 35 10 19 1021.0 - 0.0
16/08:45pm 12.8 8.4 7.5 70 2.6 SSE 20 37 11 20 1020.8 - 0.0
16/08:30pm 13.4 9.8 10.4 82 1.6 SSE 20 39 11 21 1020.6 - 0.0
16/08:15pm 13.7 10.6 10.3 80 1.8 SE 17 33 9 18 1020.7 - 0.0
16/08:00pm 13.7 10.0 10.3 80 1.8 SSE 20 35 11 19 1020.1 - 0.0
16/07:45pm 13.7 9.7 10.3 80 1.8 SE 22 33 12 18 1019.8 - 0.0
16/07:30pm 13.8 9.4 10.3 79 1.8 SSE 24 37 13 20 1019.9 - 0.0
16/07:15pm 13.9 10.2 10.3 79 1.9 SSE 20 37 11 20 1019.8 - 0.0
16/07:00pm 14.1 9.7 10.5 79 1.9 SSE 24 39 13 21 1019.6 - 0.0
16/06:45pm 14.3 8.8 10.5 78 2.0 SSE 30 46 16 25 1019.4 - 0.0
16/06:30pm 14.3 9.1 10.3 77 2.1 SSE 28 46 15 25 1018.7 - 0.0
16/06:15pm 14.3 8.3 10.2 76 2.1 SSE 32 54 17 29 1018.2 - 0.0
16/06:00pm 14.3 8.4 10.3 77 2.1 SSE 32 48 17 26 1018.3 - 0.0
16/05:45pm 14.4 9.3 10.7 78 2.0 SSE 28 52 15 28 1018.1 - 0.0
16/05:30pm 14.6 8.3 10.9 78 2.0 SSE 35 54 19 29 1017.6 - 0.0
16/05:15pm 14.7 7.9 10.8 77 2.1 SSE 37 63 20 34 1016.9 - 0.0
16/05:00pm 14.8 8.0 10.8 77 2.1 SSE 37 59 20 32 1016.5 - 0.0
16/04:45pm 14.9 9.1 10.9 77 2.1 SSE 32 54 17 29 1016.6 - 0.0
16/04:30pm 14.9 7.8 11.0 77 2.1 SSE 39 63 21 34 1016.3 - 0.0
16/04:15pm 15.0 7.6 11.1 77 2.1 SSE 41 65 22 35 1015.9 - 0.0
16/04:00pm 15.2 7.9 11.5 78 2.0 SSE 41 63 22 34 1015.1 - 0.0
16/03:45pm 15.4 9.3 11.7 78 2.0 SSE 35 63 19 34 1014.8 - 0.0
16/03:30pm 15.6 8.3 11.7 77 2.1 SSE 41 65 22 35 1014.7 - 0.0
16/03:15pm 16.0 8.4 11.8 76 2.3 SSE 43 63 23 34 1014.5 - 0.0
16/03:00pm 16.5 10.5 12.0 75 2.5 SSE 35 57 19 31 1014.2 - 0.0
16/02:45pm 17.3 9.9 12.3 72 2.8 SSE 43 67 23 36 1014.1 - 0.0
16/02:30pm 17.7 10.3 12.5 71 2.9 SSE 43 63 23 34 1013.9 - 0.0
16/02:15pm 17.8 10.2 11.9 68 3.3 SSE 43 57 23 31 1013.8 - 0.0
16/02:00pm 19.5 12.4 8.2 48 5.9 SSE 35 52 19 28 1013.6 - 0.0
16/01:45pm 25.1 19.9 2.7 23 10.9 SE 19 46 10 25 1013.2 - 0.0
16/01:30pm 25.6 22.7 -1.3 17 12.2 NE 4 7 2 4 1013.1 - 0.0
16/01:15pm 25.4 22.0 -2.1 16 12.3 NNE 6 9 3 5 1013.3 - 0.0
16/01:00pm 24.9 21.6 -1.6 17 11.9 N 6 9 3 5 1013.5 - 0.0
16/12:45pm 24.5 21.5 0.5 20 11.2 NNW 6 11 3 6 1013.7 - 0.0
16/12:30pm 24.2 20.9 0.4 21 11.0 NW 7 11 4 6 1013.8 - 0.0
16/12:15pm 24.2 20.5 0.1 20 11.1 NW 9 15 5 8 1013.9 - 0.0
16/12:00pm 24.2 19.7 -0.5 19 11.3 NW 13 20 7 11 1013.9 - 0.0
16/11:45am 24.1 19.4 0.9 21 10.9 NW 15 20 8 11 1014.0 - 0.0
16/11:30am 23.0 18.6 2.7 26 9.7 WNW 15 22 8 12 1014.1 - 0.0
16/11:15am 22.2 18.2 2.6 27 9.3 WNW 13 20 7 11 1014.3 - 0.0
16/11:00am 21.9 17.4 2.3 27 9.3 WNW 15 20 8 11 1014.4 - 0.0
16/10:45am 21.6 17.1 2.0 27 9.2 WNW 15 20 8 11 1014.5 - 0.0
16/10:30am 21.1 16.6 2.0 28 8.9 WNW 15 20 8 11 1014.5 - 0.0
16/10:15am 20.9 16.3 1.7 28 8.9 WNW 15 19 8 10 1014.6 - 0.0
16/10:00am 21.0 17.1 1.4 27 9.0 WNW 11 19 6 10 1014.6 - 0.0
16/09:45am 20.2 15.4 0.4 26 8.9 WNW 15 20 8 11 1014.7 - 0.0
16/09:30am 19.4 14.5 -0.2 26 8.6 WNW 15 19 8 10 1014.9 - 0.0
16/09:15am 18.6 13.5 0.7 30 8.0 WNW 17 22 9 12 1015.0 - 0.0
16/09:00am 17.9 12.4 0.5 31 7.7 WNW 19 24 10 13 1015.1 - 0.0
16/08:45am 17.2 11.9 -0.3 30 7.5 WNW 17 22 9 12 1015.4 - 0.0
16/08:30am 16.6 11.0 0.1 32 7.1 WNW 19 24 10 13 1015.4 - 0.0
16/08:15am 16.5 10.7 -0.4 31 7.2 WNW 20 28 11 15 1015.3 - 0.0
16/08:00am 15.8 10.0 0.0 34 6.8 WNW 20 26 11 14 1015.3 - 0.0
16/07:45am 15.8 10.0 -0.1 34 6.8 WNW 20 28 11 15 1015.4 - 0.0
16/07:30am 15.7 9.9 0.0 34 6.7 WNW 20 28 11 15 1015.4 - 0.0
16/07:15am 15.5 9.7 0.0 34 6.6 WNW 20 26 11 14 1015.5 - 0.0
16/07:00am 15.6 10.0 0.2 35 6.6 WNW 19 26 10 14 1015.6 - 0.0
16/06:45am 15.7 10.1 -0.2 34 6.8 W 19 20 10 11 1015.7 - 0.0
16/06:30am 16.0 10.8 0.0 33 6.9 WNW 17 24 9 13 1015.7 - 0.0
16/06:15am 15.6 9.9 0.5 36 6.5 WNW 20 28 11 15 1015.6 - 0.0
16/06:00am 15.3 10.7 1.7 39 6.0 WNW 15 24 8 13 1015.6 - 0.0
16/05:45am 15.3 11.1 1.9 40 6.0 WNW 13 19 7 10 1015.7 - 0.0
16/05:30am 15.3 10.8 2.2 41 5.9 WNW 15 19 8 10 1015.7 - 0.0
16/05:15am 15.2 11.6 2.8 43 5.6 W 11 19 6 10 1015.7 - 0.0
16/05:00am 15.5 11.5 2.8 42 5.8 WNW 13 17 7 9 1015.7 - 0.0
16/04:45am 15.5 11.1 2.9 42 5.7 WNW 15 20 8 11 1015.7 - 0.0
16/04:30am 15.0 10.7 3.0 44 5.4 NW 15 19 8 10 1015.7 - 0.0
16/04:15am 14.6 10.3 3.3 46 5.1 WNW 15 19 8 10 1015.7 - 0.0
16/04:00am 14.5 10.8 4.3 50 4.7 WNW 13 19 7 10 1015.7 - 0.0
16/03:45am 16.4 12.1 3.0 40 6.2 WNW 15 19 8 10 1015.8 - 0.0
16/03:30am 15.6 11.4 3.7 45 5.5 WNW 15 20 8 11 1015.9 - 0.0
16/03:15am 13.5 9.7 5.6 59 3.7 WNW 15 22 8 12 1016.0 - 0.0
16/03:00am 13.2 9.5 6.3 63 3.3 W 15 19 8 10 1016.2 - 0.0
16/02:45am 13.5 10.2 6.5 62 3.4 W 13 19 7 10 1016.3 - 0.0
16/02:30am 12.8 9.6 6.7 66 2.9 W 13 17 7 9 1016.5 - 0.0
16/02:15am 13.1 9.8 6.5 64 3.2 W 13 17 7 9 1016.7 - 0.0
16/02:00am 13.6 11.5 6.8 63 3.3 WNW 7 11 4 6 1016.9 - 0.0
16/01:45am 14.4 11.5 6.6 59 3.8 WNW 11 15 6 8 1017.0 - 0.0
16/01:30am 16.5 12.4 6.1 50 5.1 NW 17 20 9 11 1017.1 - 0.0
16/01:15am 16.5 12.3 5.9 49 5.2 NW 17 20 9 11 1017.3 - 0.0
16/01:00am 14.2 10.8 7.5 64 3.3 NW 15 19 8 10 1017.5 - 0.0
16/12:45am 14.4 11.8 7.6 63 3.4 NW 11 13 6 7 1017.7 - 0.0
16/12:30am 14.5 11.5 7.6 63 3.4 NNW 13 15 7 8 1017.7 - 0.0
16/12:15am 14.5 11.5 7.5 63 3.5 NNW 13 17 7 9 1017.8 - 0.0
16/12:00am 14.9 12.7 7.7 62 3.6 NNW 9 15 5 8 1017.9 - 0.0
 
Date/Time
EST
Temp
°C
App
Temp
°C
Dew
Point
°C
Rel
Hum
%
Delta-T
°C
Wind Press
QNH
hPa
Press
MSL
hPa
Rain since
9am
mm
Dir  Spd
km/h
Gust
km/h
Spd
kts
Gust
kts
15/11:45pm 15.0 12.7 7.6 61 3.7 NNW 9 11 5 6 1018.0 - 0.0
15/11:30pm 15.2 12.9 7.6 60 3.8 NNW 9 11 5 6 1018.1 - 0.0
15/11:15pm 15.2 13.4 7.9 61 3.7 NNW 7 11 4 6 1018.2 - 0.0
15/11:00pm 15.3 13.6 7.7 60 3.8 NNW 6 9 3 5 1018.3 - 0.0
15/10:45pm 15.3 13.6 7.6 60 3.9 WNW 6 9 3 5 1018.5 - 0.0
15/10:30pm 15.4 13.6 7.9 61 3.8 W 7 9 4 5 1018.5 - 0.0
15/10:15pm 16.2 14.9 7.7 57 4.3 W 4 7 2 4 1018.6 - 0.0
15/10:00pm 16.0 14.7 7.7 58 4.2 W 4 6 2 3 1018.7 - 0.0
15/09:45pm 15.7 14.9 8.0 60 3.9 W 2 4 1 2 1018.7 - 0.0
15/09:30pm 15.8 15.0 8.1 60 3.9 NNW 2 6 1 3 1018.7 - 0.0
15/09:15pm 16.3 15.1 8.0 58 4.2 NNW 4 6 2 3 1018.8 - 0.0
15/09:00pm 16.5 14.9 8.0 57 4.3 NNW 6 7 3 4 1018.8 - 0.0
15/08:45pm 16.4 14.6 8.0 57 4.3 NNW 7 9 4 5 1018.8 - 0.0
15/08:30pm 16.7 14.9 8.0 56 4.4 N 7 11 4 6 1018.8 - 0.0
15/08:15pm 17.3 14.7 7.8 53 4.8 N 11 15 6 8 1018.9 - 0.0
15/08:00pm 17.6 14.9 7.2 50 5.2 N 11 15 6 8 1018.9 - 0.0
15/07:45pm 17.7 15.5 7.7 52 5.1 N 9 13 5 7 1018.9 - 0.0
15/07:30pm 17.9 16.1 7.8 51 5.2 N 7 11 4 6 1018.8 - 0.0
15/07:15pm 18.2 16.6 7.9 51 5.3 - 6 9 3 5 1018.8 - 0.0
15/07:00pm 18.8 16.9 7.5 47 5.8 NNE 7 11 4 6 1018.7 - 0.0
15/06:45pm 19.5 17.5 7.3 45 6.2 N 7 11 4 6 1018.6 - 0.0
15/06:30pm 20.2 18.3 6.9 42 6.8 NE 6 11 3 6 1018.4 - 0.0
15/06:15pm 21.1 18.9 6.4 38 7.5 NE 7 11 4 6 1018.1 - 0.0
15/06:00pm 21.9 18.9 6.2 36 8.0 NE 11 15 6 8 1017.9 - 0.0
15/05:45pm 22.5 19.5 6.0 34 8.4 NNE 11 17 6 9 1017.8 - 0.0
15/05:30pm 23.2 20.1 5.5 31 9.0 NNE 11 17 6 9 1017.8 - 0.0
15/05:15pm 23.7 20.5 4.9 29 9.4 NNE 11 15 6 8 1017.8 - 0.0
15/05:00pm 24.4 21.0 4.1 26 10.1 NE 11 17 6 9 1017.7 - 0.0
15/04:45pm 24.7 21.6 3.8 25 10.4 NNE 9 17 5 9 1017.6 - 0.0
15/04:30pm 25.2 21.8 3.9 25 10.6 NE 11 15 6 8 1017.5 - 0.0
15/04:15pm 25.3 21.6 4.2 25 10.6 NNE 13 20 7 11 1017.5 - 0.0
15/04:00pm 25.2 21.6 4.9 27 10.3 NE 13 17 7 9 1017.6 - 0.0
15/03:45pm 25.3 21.0 5.3 27 10.2 NE 17 20 9 11 1017.5 - 0.0
15/03:30pm 25.4 21.0 4.6 26 10.5 NE 17 20 9 11 1017.5 - 0.0
15/03:15pm 26.0 21.1 4.0 24 11.0 NE 19 28 10 15 1017.5 - 0.0
15/03:00pm 26.9 22.8 -0.1 17 12.7 NNE 11 22 6 12 1017.5 - 0.0
15/02:45pm 27.1 23.3 -0.9 16 13.0 NNW 9 19 5 10 1017.6 - 0.0
15/02:30pm 26.5 23.1 -0.6 17 12.6 N 7 19 4 10 1017.7 - 0.0
15/02:15pm 26.6 22.7 -1.2 16 12.8 N 9 20 5 11 1018.0 - 0.0
15/02:00pm 26.5 23.0 -1.1 16 12.7 NNW 7 19 4 10 1018.2 - 0.0
15/01:45pm 26.3 23.5 -0.3 17 12.4 NNW 4 11 2 6 1018.4 - 0.0
15/01:30pm 26.0 22.7 0.3 18 12.1 N 7 13 4 7 1018.6 - 0.0
15/01:15pm 25.9 22.8 0.2 18 12.0 NNW 6 15 3 8 1018.8 - 0.0
15/01:00pm 25.6 22.3 -0.1 18 11.9 NNW 7 11 4 6 1019.1 - 0.0
15/12:45pm 25.4 21.9 -1.0 17 12.0 NW 7 17 4 9 1019.5 - 0.0
15/12:30pm 24.8 22.0 2.1 22 10.9 NW 6 13 3 7 1019.8 - 0.0
15/12:15pm 24.2 21.2 2.1 23 10.6 NW 7 17 4 9 1020.1 - 0.0
15/12:00pm 23.6 20.8 2.3 24 10.2 W 6 11 3 6 1020.4 - 0.0
15/11:45am 22.9 20.0 2.4 26 9.8 W 7 15 4 8 1020.6 - 0.0
15/11:30am 22.1 18.9 3.3 29 9.1 W 9 19 5 10 1020.8 - 0.0
15/11:15am 21.5 18.1 3.8 31 8.6 NW 11 19 6 10 1020.9 - 0.0
15/11:00am 21.2 18.2 4.1 32 8.3 WNW 9 15 5 8 1021.1 - 0.0
15/10:45am 20.5 17.0 3.5 32 8.1 W 11 15 6 8 1021.3 - 0.0
15/10:30am 19.4 16.0 4.1 36 7.3 W 11 19 6 10 1021.5 - 0.0
15/10:15am 18.5 15.2 4.6 40 6.7 WNW 11 19 6 10 1021.7 - 0.0
15/10:00am 18.0 14.7 4.5 41 6.5 WNW 11 17 6 9 1022.0 - 0.0
15/09:45am 17.2 14.2 5.8 47 5.6 WNW 11 20 6 11 1022.2 - 0.0
15/09:30am 16.5 13.6 6.7 52 4.9 WNW 11 19 6 10 1022.3 - 0.0

Latest Capital City Observations: Canberra | Sydney | Melbourne | Brisbane | Adelaide | Perth | Hobart | Darwin

Other formats

Comma delimited format used in spreadsheet applications
http://www.bom.gov.au/fwo/IDN60901/IDN60901.95757.axf

JavaScript Object Notation format (JSON) in row-major order
http://www.bom.gov.au/fwo/IDN60901/IDN60901.95757.json

Data quality

Most of these data are generated automatically and are frequently updated. Quality checks on data are not normally performed. It is possible for incorrect values to appear. Refer to information at About Latest Weather Observations and please check the disclaimer before using these data.